Time,TemperatureF,DewpointF,PressureIn,WindDirection,WindDirectionDegrees,WindSpeedMPH,WindSpeedGustMPH,Humidity,HourlyPrecipIn,Conditions,Clouds,dailyrainin,SoftwareType,DateUTC
2013-09-28 00:07:00,36.3,29.0,29.97,NNE,19,1.0,-999.0,76,-99.99,,,0.05,weatherlink.com 1.10,2013-09-28 06:07:00,
2013-09-28 00:22:00,35.8,30.0,29.99,NNE,19,0.0,-999.0,78,-99.99,,,0.00,weatherlink.com 1.10,2013-09-28 06:22:00,
2013-09-28 00:37:00,35.8,30.0,29.97,NNE,19,0.0,-999.0,78,-99.99,,,0.00,weatherlink.com 1.10,2013-09-28 06:37:00,
2013-09-28 00:52:00,35.8,30.0,29.98,NNE,19,0.0,-999.0,78,-99.99,,,0.00,weatherlink.com 1.10,2013-09-28 06:52:00,
2013-09-28 01:07:00,35.2,30.0,29.99,NNE,19,0.0,-999.0,80,-99.99,,,0.00,weatherlink.com 1.10,2013-09-28 07:07:00,
2013-09-28 01:22:00,35.2,29.0,29.99,NNE,19,3.0,-999.0,79,-99.99,,,0.00,weatherlink.com 1.10,2013-09-28 07:22:00,
2013-09-28 01:37:00,34.4,29.0,29.98,NNE,19,0.0,-999.0,80,-99.99,,,0.00,weatherlink.com 1.10,2013-09-28 07:37:00,
2013-09-28 01:52:00,33.8,29.0,30.00,NNE,19,0.0,-999.0,81,-99.99,,,0.00,weatherlink.com 1.10,2013-09-28 07:52:00,
2013-09-28 02:07:00,33.8,28.0,30.00,NNE,19,0.0,-999.0,80,-99.99,,,0.00,weatherlink.com 1.10,2013-09-28 08:07:00,
2013-09-28 02:22:00,33.2,28.0,30.00,NNE,19,0.0,-999.0,82,-99.99,,,0.00,weatherlink.com 1.10,2013-09-28 08:22:00,
2013-09-28 02:37:00,33.5,29.0,29.99,NNE,19,0.0,-999.0,83,-99.99,,,0.00,weatherlink.com 1.10,2013-09-28 08:37:00,
2013-09-28 02:52:00,33.4,28.0,29.99,NNE,19,0.0,-999.0,81,-99.99,,,0.00,weatherlink.com 1.10,2013-09-28 08:52:00,
2013-09-28 03:07:00,32.9,28.0,29.99,NNE,19,0.0,-999.0,83,-99.99,,,0.00,weatherlink.com 1.10,2013-09-28 09:07:00,
2013-09-28 03:22:00,32.1,27.0,30.00,NNE,19,0.0,-999.0,82,-99.99,,,0.00,weatherlink.com 1.10,2013-09-28 09:22:00,
2013-09-28 03:37:00,32.1,28.0,29.99,NNE,19,0.0,-999.0,84,-99.99,,,0.00,weatherlink.com 1.10,2013-09-28 09:37:00,
2013-09-28 03:52:00,31.9,28.0,29.99,NNE,19,0.0,-999.0,84,-99.99,,,0.00,weatherlink.com 1.10,2013-09-28 09:52:00,
2013-09-28 04:22:00,31.0,27.0,29.99,NNE,19,0.0,-999.0,84,-99.99,,,0.00,weatherlink.com 1.10,2013-09-28 10:22:00,
2013-09-28 04:37:00,29.8,26.0,30.01,NNE,19,0.0,-999.0,84,-99.99,,,0.00,weatherlink.com 1.10,2013-09-28 10:37:00,
2013-09-28 04:52:00,29.7,26.0,30.02,NNE,19,0.0,-999.0,85,-99.99,,,0.00,weatherlink.com 1.10,2013-09-28 10:52:00,
2013-09-28 05:07:00,29.5,26.0,30.02,NNE,19,0.0,-999.0,86,-99.99,,,0.00,weatherlink.com 1.10,2013-09-28 11:07:00,
2013-09-28 05:23:00,29.4,26.0,30.04,NNE,19,2.0,-999.0,86,-99.99,,,0.00,weatherlink.com 1.10,2013-09-28 11:23:00,
2013-09-28 05:37:00,29.0,25.0,30.04,NNE,19,0.0,-999.0,86,-99.99,,,0.00,weatherlink.com 1.10,2013-09-28 11:37:00,
2013-09-28 05:54:00,29.0,25.0,30.05,NNE,19,0.0,-999.0,86,-99.99,,,0.00,weatherlink.com 1.10,2013-09-28 11:54:00,
2013-09-28 06:07:00,28.5,25.0,30.05,NNE,19,0.0,-999.0,87,-99.99,,,0.00,weatherlink.com 1.10,2013-09-28 12:07:00,
2013-09-28 06:23:00,28.4,25.0,30.05,NNE,19,0.0,-999.0,86,-99.99,,,0.00,weatherlink.com 1.10,2013-09-28 12:23:00,
2013-09-28 06:38:00,28.8,25.0,30.09,NNE,19,0.0,-999.0,87,-99.99,,,0.00,weatherlink.com 1.10,2013-09-28 12:38:00,
2013-09-28 06:54:00,27.6,24.0,30.10,NNE,19,0.0,-999.0,87,-99.99,,,0.00,weatherlink.com 1.10,2013-09-28 12:54:00,
2013-09-28 07:08:00,28.1,25.0,30.11,NNE,19,0.0,-999.0,88,-99.99,,,0.00,weatherlink.com 1.10,2013-09-28 13:08:00,
2013-09-28 07:23:00,28.4,25.0,30.10,NNE,19,1.0,-999.0,87,-99.99,,,0.00,weatherlink.com 1.10,2013-09-28 13:23:00,
2013-09-28 07:39:00,30.0,27.0,30.14,NNE,19,1.0,-999.0,87,-99.99,,,0.00,weatherlink.com 1.10,2013-09-28 13:39:00,
2013-09-28 07:54:00,31.9,28.0,30.14,NNE,19,2.0,-999.0,85,-99.99,,,0.00,weatherlink.com 1.10,2013-09-28 13:54:00,
2013-09-28 08:09:00,33.2,29.0,30.14,NNE,19,0.0,-999.0,83,-99.99,,,0.00,weatherlink.com 1.10,2013-09-28 14:09:00,
2013-09-28 08:25:00,35.5,29.0,30.12,NNE,18,2.0,-999.0,78,-99.99,,,0.00,weatherlink.com 1.10,2013-09-28 14:25:00,
2013-09-28 08:39:00,37.9,30.0,30.14,NNE,20,4.0,-999.0,73,-99.99,,,0.00,weatherlink.com 1.10,2013-09-28 14:39:00,
2013-09-28 08:54:00,40.1,31.0,30.13,NNE,20,2.0,-999.0,69,-99.99,,,0.00,weatherlink.com 1.10,2013-09-28 14:54:00,
2013-09-28 09:09:00,42.1,30.0,30.11,NNE,20,0.0,-999.0,63,-99.99,,,0.00,weatherlink.com 1.10,2013-09-28 15:09:00,
2013-09-28 09:25:00,45.4,30.0,30.11,NNE,20,0.0,-999.0,56,-99.99,,,0.00,weatherlink.com 1.10,2013-09-28 15:25:00,
2013-09-28 09:40:00,48.3,31.0,30.11,NE,41,2.0,-999.0,52,-99.99,,,0.00,weatherlink.com 1.10,2013-09-28 15:40:00,
2013-09-28 09:55:00,49.6,29.0,30.10,NE,53,3.0,-999.0,45,-99.99,,,0.00,weatherlink.com 1.10,2013-09-28 15:55:00,
2013-09-28 10:11:00,49.8,28.0,30.11,East,97,0.0,-999.0,43,-99.99,,,0.00,weatherlink.com 1.10,2013-09-28 16:11:00,
2013-09-28 10:25:00,50.8,28.0,30.10,ESE,122,0.0,-999.0,42,-99.99,,,0.00,weatherlink.com 1.10,2013-09-28 16:25:00,
2013-09-28 10:40:00,51.3,28.0,30.11,ENE,77,2.0,-999.0,40,-99.99,,,0.00,weatherlink.com 1.10,2013-09-28 16:40:00,
2013-09-28 10:55:00,52.0,25.0,30.11,NE,47,0.0,-999.0,35,-99.99,,,0.00,weatherlink.com 1.10,2013-09-28 16:55:00,
2013-09-28 11:11:00,52.5,26.0,30.10,SW,222,0.0,-999.0,36,-99.99,,,0.00,weatherlink.com 1.10,2013-09-28 17:11:00,
2013-09-28 11:26:00,53.5,28.0,30.10,SW,216,5.0,-999.0,37,-99.99,,,0.00,weatherlink.com 1.10,2013-09-28 17:26:00,
2013-09-28 11:42:00,54.4,26.0,30.11,SSE,165,0.0,-999.0,34,-99.99,,,0.00,weatherlink.com 1.10,2013-09-28 17:42:00,
2013-09-28 11:57:00,55.3,25.0,30.11,South,179,5.0,-999.0,31,-99.99,,,0.00,weatherlink.com 1.10,2013-09-28 17:57:00,
2013-09-28 12:11:00,55.7,25.0,30.11,SSW,199,3.0,-999.0,30,-99.99,,,0.00,weatherlink.com 1.10,2013-09-28 18:11:00,
2013-09-28 12:26:00,55.7,24.0,30.09,SW,219,1.0,-999.0,29,-99.99,,,0.00,weatherlink.com 1.10,2013-09-28 18:26:00,
2013-09-28 12:41:00,56.5,25.0,30.10,WSW,250,2.0,-999.0,30,-99.99,,,0.00,weatherlink.com 1.10,2013-09-28 18:41:00,
2013-09-28 12:57:00,57.6,26.0,30.09,WSW,252,4.0,-999.0,30,-99.99,,,0.00,weatherlink.com 1.10,2013-09-28 18:57:00,
2013-09-28 13:12:00,58.0,24.0,30.09,SW,234,6.0,-999.0,27,-99.99,,,0.00,weatherlink.com 1.10,2013-09-28 19:12:00,
2013-09-28 13:26:00,57.8,25.0,30.09,SSW,202,4.0,-999.0,28,-99.99,,,0.00,weatherlink.com 1.10,2013-09-28 19:26:00,
2013-09-28 13:42:00,59.0,25.0,30.09,SSE,149,0.0,-999.0,27,-99.99,,,0.00,weatherlink.com 1.10,2013-09-28 19:42:00,
2013-09-28 13:57:00,59.3,26.0,30.08,NNW,338,0.0,-999.0,28,-99.99,,,0.00,weatherlink.com 1.10,2013-09-28 19:57:00,
2013-09-28 14:12:00,60.2,25.0,30.07,ESE,113,0.0,-999.0,26,-99.99,,,0.00,weatherlink.com 1.10,2013-09-28 20:12:00,
2013-09-28 14:30:00,61.3,25.0,30.05,WSW,255,6.0,-999.0,25,-99.99,,,0.00,weatherlink.com 1.10,2013-09-28 20:30:00,
2013-09-28 14:42:00,60.5,24.0,30.06,WSW,250,0.0,-999.0,25,-99.99,,,0.00,weatherlink.com 1.10,2013-09-28 20:42:00,
2013-09-28 14:57:00,61.6,24.0,30.05,South,172,0.0,-999.0,24,-99.99,,,0.00,weatherlink.com 1.10,2013-09-28 20:57:00,
2013-09-28 15:13:00,62.4,25.0,30.04,SSW,200,1.0,-999.0,24,-99.99,,,0.00,weatherlink.com 1.10,2013-09-28 21:13:00,
2013-09-28 15:28:00,62.1,25.0,30.04,East,90,0.0,-999.0,24,-99.99,,,0.00,weatherlink.com 1.10,2013-09-28 21:28:00,
2013-09-28 15:43:00,62.9,24.0,30.04,SSW,212,0.0,-999.0,23,-99.99,,,0.00,weatherlink.com 1.10,2013-09-28 21:43:00,
2013-09-28 15:59:00,63.9,24.0,30.02,East,80,3.0,-999.0,22,-99.99,,,0.00,weatherlink.com 1.10,2013-09-28 21:59:00,
2013-09-28 16:14:00,63.7,24.0,30.03,South,186,0.0,-999.0,22,-99.99,,,0.00,weatherlink.com 1.10,2013-09-28 22:14:00,
2013-09-28 16:29:00,63.9,23.0,30.02,SSW,194,0.0,-999.0,21,-99.99,,,0.00,weatherlink.com 1.10,2013-09-28 22:29:00,
2013-09-28 16:44:00,63.7,22.0,30.04,SW,228,0.0,-999.0,20,-99.99,,,0.00,weatherlink.com 1.10,2013-09-28 22:44:00,
2013-09-28 16:58:00,64.0,23.0,30.04,SW,226,4.0,-999.0,21,-99.99,,,0.00,weatherlink.com 1.10,2013-09-28 22:58:00,
2013-09-28 17:15:00,65.3,22.0,30.04,WSW,245,0.0,-999.0,19,-99.99,,,0.00,weatherlink.com 1.10,2013-09-28 23:15:00,
2013-09-28 17:28:00,64.5,21.0,30.03,West,274,0.0,-999.0,19,-99.99,,,0.00,weatherlink.com 1.10,2013-09-28 23:28:00,
2013-09-28 17:45:00,64.0,22.0,30.05,WSW,250,3.0,-999.0,20,-99.99,,,0.00,weatherlink.com 1.10,2013-09-28 23:45:00,
2013-09-28 17:59:00,63.9,22.0,30.05,WSW,242,3.0,-999.0,20,-99.99,,,0.00,weatherlink.com 1.10,2013-09-28 23:59:00,
2013-09-28 18:14:00,63.4,20.0,30.05,WSW,237,0.0,-999.0,19,-99.99,,,0.00,weatherlink.com 1.10,2013-09-29 00:14:00,
2013-09-28 18:30:00,62.6,22.0,30.05,WSW,237,0.0,-999.0,21,-99.99,,,0.00,weatherlink.com 1.10,2013-09-29 00:30:00,
2013-09-28 18:45:00,61.0,22.0,30.06,WSW,237,0.0,-999.0,22,-99.99,,,0.00,weatherlink.com 1.10,2013-09-29 00:45:00,
2013-09-28 19:00:00,58.7,21.0,30.06,WSW,237,0.0,-999.0,23,-99.99,,,0.00,weatherlink.com 1.10,2013-09-29 01:00:00,
2013-09-28 19:15:00,56.6,20.0,30.09,WSW,237,0.0,-999.0,24,-99.99,,,0.00,weatherlink.com 1.10,2013-09-29 01:15:00,
2013-09-28 19:30:00,54.4,21.0,30.11,WSW,237,0.0,-999.0,27,-99.99,,,0.00,weatherlink.com 1.10,2013-09-29 01:30:00,
2013-09-28 19:45:00,52.6,20.0,30.09,WSW,237,0.0,-999.0,28,-99.99,,,0.00,weatherlink.com 1.10,2013-09-29 01:45:00,
2013-09-28 20:00:00,51.9,20.0,30.09,WSW,237,0.0,-999.0,28,-99.99,,,0.00,weatherlink.com 1.10,2013-09-29 02:00:00,
2013-09-28 20:15:00,50.5,18.0,30.11,WSW,237,0.0,-999.0,28,-99.99,,,0.00,weatherlink.com 1.10,2013-09-29 02:15:00,
2013-09-28 20:30:00,49.2,21.0,30.11,WSW,238,0.0,-999.0,33,-99.99,,,0.00,weatherlink.com 1.10,2013-09-29 02:30:00,
2013-09-28 20:45:00,49.4,18.0,30.07,WSW,238,0.0,-999.0,29,-99.99,,,0.00,weatherlink.com 1.10,2013-09-29 02:45:00,
2013-09-28 21:00:00,48.5,22.0,30.08,WSW,238,0.0,-999.0,35,-99.99,,,0.00,weatherlink.com 1.10,2013-09-29 03:00:00,
2013-09-28 21:15:00,47.3,24.0,30.09,WSW,238,0.0,-999.0,41,-99.99,,,0.00,weatherlink.com 1.10,2013-09-29 03:15:00,
2013-09-28 21:30:00,43.1,23.0,30.10,West,264,1.0,-999.0,46,-99.99,,,0.00,weatherlink.com 1.10,2013-09-29 03:30:00,
2013-09-28 21:45:00,41.8,25.0,30.07,West,264,0.0,-999.0,51,-99.99,,,0.00,weatherlink.com 1.10,2013-09-29 03:45:00,
2013-09-28 22:00:00,39.9,26.0,30.09,WNW,291,2.0,-999.0,57,-99.99,,,0.00,weatherlink.com 1.10,2013-09-29 04:00:00,
2013-09-28 22:15:00,38.3,26.0,30.10,WNW,291,2.0,-999.0,62,-99.99,,,0.00,weatherlink.com 1.10,2013-09-29 04:15:00,
2013-09-28 22:30:00,37.9,28.0,30.11,WNW,297,3.0,-999.0,67,-99.99,,,0.00,weatherlink.com 1.10,2013-09-29 04:30:00,
2013-09-28 22:45:00,38.5,29.0,30.10,WNW,297,1.0,-999.0,70,-99.99,,,0.00,weatherlink.com 1.10,2013-09-29 04:45:00,
2013-09-28 23:00:00,39.2,29.0,30.08,NNW,341,4.0,-999.0,67,-99.99,,,0.00,weatherlink.com 1.10,2013-09-29 05:00:00,
2013-09-28 23:15:00,39.9,29.0,30.08,NNE,27,1.0,-999.0,64,-99.99,,,0.00,weatherlink.com 1.10,2013-09-29 05:15:00,
2013-09-28 23:30:00,38.8,29.0,30.08,NNE,27,2.0,-999.0,68,-99.99,,,0.00,weatherlink.com 1.10,2013-09-29 05:30:00,
2013-09-28 23:45:00,38.8,29.0,30.07,NNE,27,4.0,-999.0,69,-99.99,,,0.00,weatherlink.com 1.10,2013-09-29 05:45:00,